createdAt,value
2018-08-28T00:01:57.601Z,98450.61
2018-08-28T00:04:26.042Z,98450.73
2018-08-28T00:06:54.812Z,98461.52
2018-08-28T00:09:23.249Z,98460.38
2018-08-28T00:11:51.739Z,98464.90
2018-08-28T00:14:20.759Z,98462.53
2018-08-28T00:16:49.177Z,98457.21
2018-08-28T00:19:17.643Z,98463.97
2018-08-28T00:21:46.168Z,98464.13
2018-08-28T00:24:14.606Z,98465.29
2018-08-28T00:26:43.032Z,98460.06
2018-08-28T00:29:11.743Z,98462.36
2018-08-28T00:31:40.185Z,98464.17
2018-08-28T00:34:08.608Z,98469.80
2018-08-28T00:36:37.184Z,98466.34
2018-08-28T00:39:06.395Z,98465.56
2018-08-28T00:41:34.876Z,98460.57
2018-08-28T00:44:03.311Z,98462.31
2018-08-28T00:46:32.242Z,98467.08
2018-08-28T00:49:00.695Z,98467.58
2018-08-28T00:51:29.116Z,98472.39
2018-08-28T00:53:57.699Z,98468.34
2018-08-28T00:56:26.232Z,98470.56
2018-08-28T00:58:54.675Z,98471.66
2018-08-28T01:01:23.331Z,98467.44
2018-08-28T01:03:51.743Z,98461.96
2018-08-28T01:06:20.258Z,98466.22
2018-08-28T01:08:48.777Z,98467.83
2018-08-28T01:11:17.262Z,98471.85
2018-08-28T01:17:16.803Z,98480.08
2018-08-28T01:19:45.247Z,98475.56
2018-08-28T01:22:13.647Z,98477.63
2018-08-28T01:24:42.054Z,98476.45
2018-08-28T01:27:10.587Z,98480.40
2018-08-28T01:29:39.247Z,98484.51
2018-08-28T01:32:07.711Z,98481.01
2018-08-28T01:34:36.198Z,98481.25
2018-08-28T01:37:04.648Z,98468.37
2018-08-28T01:39:33.246Z,98480.32
2018-08-28T01:42:01.727Z,98473.91
2018-08-28T01:44:30.133Z,98471.34
2018-08-28T01:46:58.690Z,98470.78
2018-08-28T01:49:27.141Z,98476.41
2018-08-28T01:51:55.556Z,98476.23
2018-08-28T01:54:23.997Z,98474.13
2018-08-28T01:56:52.457Z,98476.16
2018-08-28T01:59:20.888Z,98474.41
2018-08-28T02:01:49.292Z,98478.40
2018-08-28T02:04:17.745Z,98473.48
2018-08-28T02:06:46.224Z,98471.66
2018-08-28T02:09:14.671Z,98469.36
2018-08-28T02:11:43.091Z,98469.56
2018-08-28T02:14:11.556Z,98475.13
2018-08-28T02:16:40.067Z,98478.67
2018-08-28T02:19:08.563Z,98473.96
2018-08-28T02:21:37.579Z,98477.82
2018-08-28T02:24:06.318Z,98475.66
2018-08-28T02:26:34.957Z,98478.74
2018-08-28T02:29:03.645Z,98479.09
2018-08-28T02:31:32.144Z,98481.90
2018-08-28T02:34:00.828Z,98479.31
2018-08-28T02:36:29.246Z,98474.06
2018-08-28T02:38:57.684Z,98477.82
2018-08-28T02:41:26.098Z,98478.02
2018-08-28T02:43:54.547Z,98493.50
2018-08-28T02:46:22.978Z,98487.55
2018-08-28T02:48:51.729Z,98491.47
2018-08-28T02:51:20.192Z,98485.20
2018-08-28T02:53:48.610Z,98484.51
2018-08-28T02:56:17.103Z,98494.23
2018-08-28T02:58:45.546Z,98483.67
2018-08-28T03:01:13.982Z,98501.31
2018-08-28T03:03:43.018Z,98487.08
2018-08-28T03:06:11.460Z,98492.20
2018-08-28T03:08:39.897Z,98491.17
2018-08-28T03:11:08.310Z,98502.84
2018-08-28T03:13:36.718Z,98499.10
2018-08-28T03:16:05.205Z,98496.45
2018-08-28T03:18:33.813Z,98494.47
2018-08-28T03:21:02.291Z,98505.20
2018-08-28T03:23:30.760Z,98506.87
2018-08-28T03:25:59.187Z,98496.98
2018-08-28T03:28:27.630Z,98505.41
2018-08-28T03:30:56.053Z,98507.71
2018-08-28T03:33:24.528Z,98507.42
2018-08-28T03:35:53.444Z,98514.95
2018-08-28T03:38:22.413Z,98517.77
2018-08-28T03:40:50.842Z,98516.64
2018-08-28T03:43:19.808Z,98519.29
2018-08-28T03:45:48.704Z,98515.08
2018-08-28T03:48:17.158Z,98515.68
2018-08-28T03:50:45.655Z,98511.84
2018-08-28T03:53:14.086Z,98511.95
2018-08-28T03:55:42.508Z,98514.33
2018-08-28T03:58:11.020Z,98522.48
2018-08-28T04:00:39.465Z,98514.58
2018-08-28T04:03:07.906Z,98534.02
2018-08-28T04:05:36.352Z,98538.97
2018-08-28T04:08:06.022Z,98535.72
2018-08-28T04:10:34.480Z,98545.97
2018-08-28T04:13:02.931Z,98547.50
2018-08-28T04:15:31.352Z,98531.72
2018-08-28T04:17:59.785Z,98541.42
2018-08-28T04:20:28.380Z,98535.77
2018-08-28T04:22:56.823Z,98538.77
2018-08-28T04:25:25.592Z,98536.16
2018-08-28T04:27:54.111Z,98544.11
2018-08-28T04:30:22.803Z,98544.18
2018-08-28T04:32:51.259Z,98550.23
2018-08-28T04:35:19.691Z,98553.17
2018-08-28T04:37:48.300Z,98542.25
2018-08-28T04:40:16.772Z,98546.86
2018-08-28T04:42:45.177Z,98546.47
2018-08-28T04:45:13.589Z,98559.13
2018-08-28T04:47:41.993Z,98557.24
2018-08-28T04:50:10.664Z,98557.64
2018-08-28T04:52:39.069Z,98566.44
2018-08-28T04:55:07.498Z,98564.94
2018-08-28T04:57:36.202Z,98560.73
2018-08-28T05:00:05.244Z,98569.77
2018-08-28T05:02:35.462Z,98564.14
2018-08-28T05:05:06.130Z,98564.94
2018-08-28T05:07:34.928Z,98565.52
2018-08-28T05:10:04.253Z,98569.00
2018-08-28T05:12:32.691Z,98566.17
2018-08-28T05:15:01.102Z,98568.27
2018-08-28T05:17:29.511Z,98572.14
2018-08-28T05:19:57.955Z,98571.18
2018-08-28T05:22:26.467Z,98575.41
2018-08-28T05:24:54.906Z,98567.38
2018-08-28T05:27:23.365Z,98576.15
2018-08-28T05:29:51.771Z,98580.53
2018-08-28T05:32:20.196Z,98581.76
2018-08-28T05:34:48.655Z,98583.52
2018-08-28T05:37:17.063Z,98586.45
2018-08-28T05:39:45.724Z,98578.86
2018-08-28T05:42:14.165Z,98588.22
2018-08-28T05:44:42.677Z,98587.03
2018-08-28T05:47:11.093Z,98592.77
2018-08-28T05:49:39.671Z,98597.62
2018-08-28T05:52:08.055Z,98599.28
2018-08-28T05:54:36.706Z,98597.69
2018-08-28T05:57:05.175Z,98594.22
2018-08-28T05:59:33.642Z,98590.87
2018-08-28T06:02:02.124Z,98600.02
2018-08-28T06:04:30.823Z,98596.70
2018-08-28T06:06:59.299Z,98598.48
2018-08-28T06:09:27.748Z,98597.09
2018-08-28T06:11:56.169Z,98598.59
2018-08-28T06:14:24.631Z,98598.41
2018-08-28T06:16:53.055Z,98609.81
2018-08-28T06:19:21.466Z,98613.50
2018-08-28T06:21:49.935Z,98618.14
2018-08-28T06:24:18.373Z,98610.84
2018-08-28T06:26:46.799Z,98609.86
2018-08-28T06:29:15.215Z,98612.06
2018-08-28T06:31:43.639Z,98618.39
2018-08-28T06:34:12.076Z,98613.61
2018-08-28T06:36:40.503Z,98613.06
2018-08-28T06:39:09.718Z,98615.52
2018-08-28T06:41:38.419Z,98612.21
2018-08-28T06:44:07.575Z,98612.00
2018-08-28T06:46:36.014Z,98612.69
2018-08-28T06:49:04.776Z,98611.34
2018-08-28T06:51:33.312Z,98613.50
2018-08-28T06:54:01.722Z,98618.39
2018-08-28T06:56:30.707Z,98617.55
2018-08-28T06:58:59.140Z,98620.26
2018-08-28T07:01:27.559Z,98616.49
2018-08-28T07:03:56.088Z,98619.41
2018-08-28T07:06:24.464Z,98615.08
2018-08-28T07:08:52.899Z,98614.12
2018-08-28T07:11:21.354Z,98612.38
2018-08-28T07:13:50.124Z,98613.00
2018-08-28T07:16:18.529Z,98614.32
2018-08-28T07:18:47.155Z,98614.38
2018-08-28T07:21:15.609Z,98615.75
2018-08-28T07:23:44.015Z,98619.36
2018-08-28T07:26:12.653Z,98612.92
2018-08-28T07:28:41.150Z,98618.57
2018-08-28T07:31:09.595Z,98626.02
2018-08-28T07:33:38.052Z,98626.62
2018-08-28T07:36:06.457Z,98621.59
2018-08-28T07:38:34.891Z,98618.72
2018-08-28T07:41:03.320Z,98621.25
2018-08-28T07:43:31.964Z,98620.45
2018-08-28T07:46:00.436Z,98621.46
2018-08-28T07:48:28.927Z,98623.27
2018-08-28T07:50:57.410Z,98623.78
2018-08-28T07:53:25.851Z,98619.63
2018-08-28T07:55:54.309Z,98618.42
2018-08-28T07:58:22.777Z,98615.75
2018-08-28T08:00:51.183Z,98617.30
2018-08-28T08:03:23.237Z,98620.94
2018-08-28T08:05:53.001Z,98619.61
2018-08-28T08:08:21.871Z,98623.13
2018-08-28T08:10:50.320Z,98622.31
2018-08-28T08:13:18.767Z,98620.71
2018-08-28T08:15:47.672Z,98617.69
2018-08-28T08:18:16.291Z,98618.58
2018-08-28T08:20:44.757Z,98615.89
2018-08-28T08:23:13.207Z,98621.59
2018-08-28T08:25:42.226Z,98613.80
2018-08-28T08:28:11.242Z,98618.23
2018-08-28T08:30:39.854Z,98618.91
2018-08-28T08:33:08.609Z,98622.02
2018-08-28T08:35:37.016Z,98622.16
2018-08-28T08:38:06.343Z,98619.35
2018-08-28T08:40:35.109Z,98614.11
2018-08-28T08:43:03.549Z,98609.03
2018-08-28T08:45:31.975Z,98603.25
2018-08-28T08:48:00.380Z,98608.47
2018-08-28T08:50:29.120Z,98599.21
2018-08-28T08:52:57.854Z,98604.80
2018-08-28T08:55:26.414Z,98607.61
2018-08-28T08:57:55.075Z,98612.78
2018-08-28T09:00:23.500Z,98616.31
2018-08-28T09:02:52.088Z,98614.75
2018-08-28T09:05:20.489Z,98608.53
2018-08-28T09:07:49.681Z,98613.45
2018-08-28T09:10:18.251Z,98614.88
2018-08-28T09:12:46.709Z,98608.44
2018-08-28T09:15:15.292Z,98600.69
2018-08-28T09:17:43.747Z,98607.63
2018-08-28T09:20:12.203Z,98608.38
2018-08-28T09:22:40.849Z,98605.67
2018-08-28T09:25:09.443Z,98605.70
2018-08-28T09:27:37.906Z,98598.00
2018-08-28T09:30:06.883Z,98593.98
2018-08-28T09:32:35.321Z,98597.84
2018-08-28T09:35:03.787Z,98597.74
2018-08-28T09:37:32.242Z,98596.38
2018-08-28T09:40:00.911Z,98598.48
2018-08-28T09:42:29.344Z,98589.53
2018-08-28T09:44:57.787Z,98593.94
2018-08-28T09:47:26.423Z,98598.02
2018-08-28T09:49:54.862Z,98593.94
2018-08-28T09:52:23.258Z,98593.30
2018-08-28T09:54:52.075Z,98591.80
2018-08-28T09:57:20.544Z,98589.87
2018-08-28T09:59:49.013Z,98585.64
2018-08-28T10:02:17.447Z,98595.66
2018-08-28T10:04:45.956Z,98590.84
2018-08-28T10:07:14.368Z,98589.11
2018-08-28T10:09:43.039Z,98585.02
2018-08-28T10:12:11.497Z,98584.63
2018-08-28T10:14:39.952Z,98584.88
2018-08-28T10:17:08.412Z,98584.31
2018-08-28T10:19:37.277Z,98590.25
2018-08-28T10:22:05.696Z,98588.85
2018-08-28T10:24:34.107Z,98582.53
2018-08-28T10:27:02.514Z,98583.91
2018-08-28T10:29:31.032Z,98582.72
2018-08-28T10:31:59.759Z,98579.57
2018-08-28T10:34:28.172Z,98577.12
2018-08-28T10:36:56.621Z,98572.83
2018-08-28T10:39:39.282Z,98575.76
2018-08-28T10:42:08.160Z,98576.77
2018-08-28T10:44:36.629Z,98570.32
2018-08-28T10:47:05.152Z,98582.67
2018-08-28T10:49:33.603Z,98575.33
2018-08-28T10:52:02.100Z,98572.44
2018-08-28T10:54:30.834Z,98569.99
2018-08-28T10:56:59.235Z,98574.06
2018-08-28T10:59:27.651Z,98583.09
2018-08-28T11:01:56.082Z,98579.91
2018-08-28T11:04:24.512Z,98571.92
2018-08-28T11:06:52.960Z,98567.63
2018-08-28T11:09:21.382Z,98570.55
2018-08-28T11:11:49.824Z,98563.95
2018-08-28T11:14:18.228Z,98559.69
2018-08-28T11:16:46.627Z,98554.96
2018-08-28T11:19:15.245Z,98553.00
2018-08-28T11:21:43.686Z,98550.98
2018-08-28T11:24:12.141Z,98552.68
2018-08-28T11:26:40.573Z,98543.24
2018-08-28T11:29:09.015Z,98551.06
2018-08-28T11:31:37.433Z,98557.98
2018-08-28T11:34:06.279Z,98544.63
2018-08-28T11:36:34.731Z,98540.26
2018-08-28T11:39:03.420Z,98546.03
2018-08-28T11:41:31.867Z,98547.23
2018-08-28T11:44:00.307Z,98549.30
2018-08-28T11:46:28.695Z,98543.47
2018-08-28T11:48:57.119Z,98536.23
2018-08-28T11:51:25.564Z,98537.31
2018-08-28T11:53:53.995Z,98546.49
2018-08-28T11:56:22.589Z,98545.70
2018-08-28T11:58:51.040Z,98548.19
2018-08-28T12:01:19.475Z,98548.90
2018-08-28T12:03:47.979Z,98544.35
2018-08-28T12:06:16.405Z,98544.17
2018-08-28T12:08:44.972Z,98548.64
2018-08-28T12:11:13.462Z,98537.23
2018-08-28T12:13:42.051Z,98533.50
2018-08-28T12:16:10.792Z,98531.36
2018-08-28T12:18:39.222Z,98542.11
2018-08-28T12:21:07.736Z,98527.20
2018-08-28T12:23:36.181Z,98522.63
2018-08-28T12:26:04.596Z,98520.89
2018-08-28T12:28:33.326Z,98510.36
2018-08-28T12:31:01.749Z,98524.08
2018-08-28T12:33:30.131Z,98515.20
2018-08-28T12:35:58.529Z,98507.55
2018-08-28T12:38:26.959Z,98502.01
2018-08-28T12:40:55.426Z,98498.91
2018-08-28T12:43:23.902Z,98501.20
2018-08-28T12:45:52.331Z,98503.84
2018-08-28T12:48:20.741Z,98491.92
2018-08-28T12:50:49.407Z,98488.75
2018-08-28T12:53:18.319Z,98485.48
2018-08-28T12:55:46.741Z,98495.44
2018-08-28T12:58:15.408Z,98481.75
2018-08-28T13:00:43.959Z,98485.19
2018-08-28T13:03:12.365Z,98479.20
2018-08-28T13:05:40.804Z,98474.32
2018-08-28T13:08:09.207Z,98469.34
2018-08-28T13:10:37.650Z,98460.17
2018-08-28T13:13:06.176Z,98468.20
2018-08-28T13:15:34.649Z,98465.11
2018-08-28T13:18:03.093Z,98467.20
2018-08-28T13:20:31.477Z,98460.02
2018-08-28T13:22:59.952Z,98454.11
2018-08-28T13:25:28.753Z,98462.28
2018-08-28T13:27:57.039Z,98450.77
2018-08-28T13:30:25.517Z,98459.71
2018-08-28T13:32:53.943Z,98457.77
2018-08-28T13:35:22.461Z,98457.58
2018-08-28T13:37:50.884Z,98455.94
2018-08-28T13:40:19.343Z,98459.40
2018-08-28T13:42:47.853Z,98455.58
2018-08-28T13:45:16.315Z,98436.95
2018-08-28T13:47:44.763Z,98442.59
2018-08-28T13:50:13.185Z,98441.08
2018-08-28T13:52:41.598Z,98443.59
2018-08-28T13:55:10.084Z,98444.85
2018-08-28T13:57:38.736Z,98443.76
2018-08-28T14:00:07.267Z,98435.38
2018-08-28T14:02:35.606Z,98432.05
2018-08-28T14:05:04.908Z,98436.24
2018-08-28T14:07:33.517Z,98423.27
2018-08-28T14:10:02.072Z,98416.71
2018-08-28T14:12:30.539Z,98423.88
2018-08-28T14:14:58.991Z,98425.36
2018-08-28T14:18:29.935Z,98417.71
2018-08-28T14:20:58.353Z,98422.74
2018-08-28T14:23:26.860Z,98417.67
2018-08-28T14:25:55.375Z,98419.24
2018-08-28T14:28:23.852Z,98407.97
2018-08-28T14:30:52.500Z,98411.58
2018-08-28T14:33:20.948Z,98416.42
2018-08-28T14:35:49.922Z,98409.95
2018-08-28T14:38:18.291Z,98413.19
2018-08-28T14:40:46.822Z,98404.59
2018-08-28T14:43:15.217Z,98407.20
2018-08-28T14:45:43.711Z,98401.91
2018-08-28T14:48:12.188Z,98408.22
2018-08-28T14:50:40.599Z,98408.98
2018-08-28T14:53:09.132Z,98398.80
2018-08-28T14:55:37.579Z,98406.42
2018-08-28T14:58:05.987Z,98404.55
2018-08-28T15:00:34.540Z,98402.65
2018-08-28T15:03:02.964Z,98403.73
2018-08-28T15:05:31.683Z,98403.57
2018-08-28T15:08:00.440Z,98395.54
2018-08-28T15:10:29.097Z,98398.20
2018-08-28T15:12:57.778Z,98394.73
2018-08-28T15:15:26.187Z,98398.14
2018-08-28T15:17:54.631Z,98394.17
2018-08-28T15:20:23.345Z,98398.63
2018-08-28T15:22:51.791Z,98395.88
2018-08-28T15:25:20.253Z,98398.17
2018-08-28T15:27:48.680Z,98395.33
2018-08-28T15:30:17.090Z,98389.58
2018-08-28T15:32:45.544Z,98396.91
2018-08-28T15:35:13.986Z,98391.70
2018-08-28T15:37:42.538Z,98389.48
2018-08-28T15:40:10.970Z,98384.05
2018-08-28T15:42:39.379Z,98388.09
2018-08-28T15:45:08.112Z,98383.11
2018-08-28T15:47:36.523Z,98385.09
2018-08-28T15:50:05.020Z,98378.58
2018-08-28T15:52:33.472Z,98379.38
2018-08-28T15:55:01.899Z,98378.87
2018-08-28T15:57:30.660Z,98382.03
2018-08-28T15:59:59.152Z,98377.16
2018-08-28T16:02:27.744Z,98375.62
2018-08-28T16:04:56.227Z,98367.42
2018-08-28T16:07:24.642Z,98366.11
2018-08-28T16:09:53.551Z,98365.65
2018-08-28T16:12:21.980Z,98366.98
2018-08-28T16:14:50.710Z,98367.11
2018-08-28T16:17:19.165Z,98365.45
2018-08-28T16:19:47.584Z,98367.21
2018-08-28T16:22:20.056Z,98363.27
2018-08-28T16:24:48.453Z,98367.06
2018-08-28T16:27:17.075Z,98361.29
2018-08-28T16:29:45.578Z,98362.87
2018-08-28T16:32:13.940Z,98363.59
2018-08-28T16:34:42.375Z,98362.23
2018-08-28T16:37:11.379Z,98358.14
2018-08-28T16:39:39.954Z,98362.06
2018-08-28T16:42:08.377Z,98362.30
2018-08-28T16:44:36.848Z,98363.55
2018-08-28T16:47:05.325Z,98364.72
2018-08-28T16:49:33.789Z,98356.09
2018-08-28T16:52:02.528Z,98351.66
2018-08-28T16:54:31.263Z,98355.16
2018-08-28T16:56:59.948Z,98356.56
2018-08-28T16:59:28.617Z,98357.09
2018-08-28T17:01:57.136Z,98354.39
2018-08-28T17:04:26.556Z,98352.56
2018-08-28T17:06:55.022Z,98353.00
2018-08-28T17:09:23.878Z,98359.30
2018-08-28T17:11:52.365Z,98358.69
2018-08-28T17:14:20.828Z,98360.11
2018-08-28T17:16:49.726Z,98360.91
2018-08-28T17:19:18.187Z,98363.77
2018-08-28T17:21:46.799Z,98365.27
2018-08-28T17:24:15.443Z,98369.06
2018-08-28T17:26:44.391Z,98362.42
2018-08-28T17:29:12.772Z,98367.52
2018-08-28T17:31:41.233Z,98366.45
2018-08-28T17:34:09.692Z,98362.89
2018-08-28T17:36:38.068Z,98366.45
2018-08-28T17:39:07.821Z,98367.78
2018-08-28T17:41:36.236Z,98365.17
2018-08-28T17:44:04.755Z,98371.73
2018-08-28T17:46:33.253Z,98374.31
2018-08-28T17:49:01.906Z,98370.89
2018-08-28T17:51:30.964Z,98379.41
2018-08-28T17:53:59.429Z,98376.68
2018-08-28T17:56:27.885Z,98370.05
2018-08-28T17:58:56.363Z,98375.17
2018-08-28T18:01:24.868Z,98374.88
2018-08-28T18:03:53.305Z,98376.77
2018-08-28T18:06:28.369Z,98374.97
2018-08-28T18:08:56.828Z,98373.16
2018-08-28T18:11:25.251Z,98371.08
2018-08-28T18:13:53.745Z,98373.79
2018-08-28T18:16:22.295Z,98374.12
2018-08-28T18:18:50.875Z,98377.31
2018-08-28T18:21:19.320Z,98385.55
2018-08-28T18:23:47.734Z,98356.05
2018-08-28T18:26:16.241Z,98385.45
2018-08-28T18:28:44.736Z,98386.13
2018-08-28T18:31:13.172Z,98386.55
2018-08-28T18:33:41.704Z,98390.42
2018-08-28T18:36:10.312Z,98391.27
2018-08-28T18:38:38.744Z,98389.76
2018-08-28T18:41:07.395Z,98390.16
2018-08-28T18:43:35.690Z,98399.61
2018-08-28T18:46:04.107Z,98393.41
2018-08-28T18:48:32.632Z,98399.05
2018-08-28T18:51:01.092Z,98398.13
2018-08-28T18:53:29.545Z,98391.80
2018-08-28T18:55:58.215Z,98399.13
2018-08-28T18:58:26.635Z,98394.67
2018-08-28T19:00:55.287Z,98400.48
2018-08-28T19:03:23.783Z,98403.84
2018-08-28T19:05:52.230Z,98405.09
2018-08-28T19:08:20.698Z,98403.05
2018-08-28T19:10:50.446Z,98407.02
2018-08-28T19:13:18.852Z,98404.45
2018-08-28T19:15:47.343Z,98409.25
2018-08-28T19:18:15.806Z,98405.58
2018-08-28T19:20:44.257Z,98398.63
2018-08-28T19:23:12.657Z,98414.25
2018-08-28T19:25:41.095Z,98410.88
2018-08-28T19:28:09.804Z,98406.92
2018-08-28T19:30:38.189Z,98386.75
2018-08-28T19:33:06.728Z,98408.16
2018-08-28T19:35:35.144Z,98418.88
2018-08-28T19:38:03.532Z,98415.41
2018-08-28T19:40:38.721Z,98403.28
2018-08-28T19:43:07.194Z,98411.97
2018-08-28T19:45:35.717Z,98410.89
2018-08-28T19:48:04.183Z,98408.44
2018-08-28T19:50:34.380Z,98412.00
2018-08-28T19:53:02.900Z,98416.02
2018-08-28T19:55:31.396Z,98413.36
2018-08-28T19:58:00.066Z,98410.88
2018-08-28T20:00:28.547Z,98406.20
2018-08-28T20:02:57.172Z,98407.06
2018-08-28T20:05:25.656Z,98416.09
2018-08-28T20:07:54.230Z,98414.22
2018-08-28T20:10:22.659Z,98404.09
2018-08-28T20:12:51.051Z,98414.42
2018-08-28T20:15:19.473Z,98406.71
2018-08-28T20:17:47.932Z,98406.08
2018-08-28T20:20:16.357Z,98409.13
2018-08-28T20:22:44.813Z,98412.40
2018-08-28T20:25:13.244Z,98413.73
2018-08-28T20:27:41.728Z,98415.72
2018-08-28T20:30:10.512Z,98408.56
2018-08-28T20:32:39.099Z,98404.91
2018-08-28T20:35:07.866Z,98401.40
2018-08-28T20:37:36.589Z,98406.33
2018-08-28T20:41:08.291Z,98401.33
2018-08-28T20:43:37.107Z,98401.00
2018-08-28T20:46:05.602Z,98404.02
2018-08-28T20:48:34.028Z,98403.69
2018-08-28T20:51:02.753Z,98400.20
2018-08-28T20:53:31.266Z,98398.36
2018-08-28T20:55:59.663Z,98397.67
2018-08-28T20:58:29.060Z,98395.67
2018-08-28T21:00:57.533Z,98396.16
2018-08-28T21:03:26.003Z,98400.29
2018-08-28T21:05:55.001Z,98398.76
2018-08-28T21:08:23.521Z,98402.95
2018-08-28T21:10:51.955Z,98406.65
2018-08-28T21:13:20.372Z,98405.41
2018-08-28T21:15:48.795Z,98407.23
2018-08-28T21:18:17.587Z,98411.76
2018-08-28T21:20:46.016Z,98403.03
2018-08-28T21:23:14.417Z,98399.84
2018-08-28T21:25:42.870Z,98402.48
2018-08-28T21:28:11.304Z,98403.47
2018-08-28T21:30:40.108Z,98405.45
2018-08-28T21:33:08.542Z,98394.91
2018-08-28T21:35:36.957Z,98394.04
2018-08-28T21:38:05.741Z,98390.98
2018-08-28T21:40:34.112Z,98397.75
2018-08-28T21:43:02.544Z,98394.48
2018-08-28T21:45:31.335Z,98395.14
2018-08-28T21:47:59.739Z,98401.30
2018-08-28T21:50:28.201Z,98386.77
2018-08-28T21:52:56.788Z,98384.84
2018-08-28T21:55:25.243Z,98389.86
2018-08-28T21:57:53.915Z,98382.38
2018-08-28T22:00:22.658Z,98373.40
2018-08-28T22:02:51.117Z,98383.09
2018-08-28T22:05:23.880Z,98385.41
2018-08-28T22:07:56.440Z,98391.61
2018-08-28T22:10:24.946Z,98385.20
2018-08-28T22:12:53.396Z,98384.42
2018-08-28T22:15:21.861Z,98382.42
2018-08-28T22:17:50.260Z,98378.87
2018-08-28T22:20:18.695Z,98383.50
2018-08-28T22:22:47.421Z,98392.08
2018-08-28T22:26:18.990Z,98383.61
2018-08-28T22:28:47.405Z,98383.20
2018-08-28T22:31:15.840Z,98378.08
2018-08-28T22:33:44.239Z,98381.03
2018-08-28T22:36:12.667Z,98378.65
2018-08-28T22:38:41.099Z,98371.09
2018-08-28T22:41:09.699Z,98371.83
2018-08-28T22:43:38.136Z,98376.97
2018-08-28T22:46:06.947Z,98370.89
2018-08-28T22:48:35.361Z,98382.11
2018-08-28T22:51:03.772Z,98379.94
2018-08-28T22:53:32.152Z,98372.38
2018-08-28T22:56:00.820Z,98377.95
2018-08-28T22:58:29.251Z,98363.42
2018-08-28T23:00:57.693Z,98369.78
2018-08-28T23:03:26.235Z,98366.26
2018-08-28T23:05:54.688Z,98370.01
2018-08-28T23:08:23.341Z,98372.37
2018-08-28T23:10:51.772Z,98364.69
2018-08-28T23:13:20.167Z,98367.97
2018-08-28T23:15:48.584Z,98363.05
2018-08-28T23:18:17.005Z,98354.19
2018-08-28T23:20:45.450Z,98355.27
2018-08-28T23:23:13.905Z,98351.88
2018-08-28T23:25:42.595Z,98357.14
2018-08-28T23:28:11.838Z,98355.90
2018-08-28T23:30:40.262Z,98349.56
2018-08-28T23:33:08.719Z,98346.37
2018-08-28T23:35:37.146Z,98343.39
2018-08-28T23:40:40.724Z,98342.91
2018-08-28T23:43:09.184Z,98339.16
2018-08-28T23:45:37.624Z,98334.98
2018-08-28T23:48:06.067Z,98334.94
2018-08-28T23:50:34.654Z,98329.72
2018-08-28T23:53:03.366Z,98328.88
2018-08-28T23:55:31.793Z,98326.14
2018-08-28T23:58:00.218Z,98323.17
